sensor_id;sensor_type;location;lat;lon;timestamp;P1;durP1;ratioP1;P2;durP2;ratioP2
69779;SDS011;57052;55.602;38.096;2023-06-04T00:01:54;10.27;;;3.05;;
69779;SDS011;57052;55.602;38.096;2023-06-04T00:04:19;7.70;;;3.50;;
69779;SDS011;57052;55.602;38.096;2023-06-04T00:06:47;8.05;;;2.88;;
69779;SDS011;57052;55.602;38.096;2023-06-04T00:09:13;7.80;;;3.55;;
69779;SDS011;57052;55.602;38.096;2023-06-04T00:11:38;6.50;;;3.20;;
69779;SDS011;57052;55.602;38.096;2023-06-04T00:14:04;5.50;;;3.03;;
69779;SDS011;57052;55.602;38.096;2023-06-04T00:16:30;9.30;;;4.68;;
69779;SDS011;57052;55.602;38.096;2023-06-04T00:18:55;8.23;;;3.70;;
69779;SDS011;57052;55.602;38.096;2023-06-04T00:21:21;6.00;;;3.13;;
69779;SDS011;57052;55.602;38.096;2023-06-04T00:23:46;7.22;;;3.13;;
69779;SDS011;57052;55.602;38.096;2023-06-04T00:26:12;6.55;;;3.30;;
69779;SDS011;57052;55.602;38.096;2023-06-04T00:28:38;6.30;;;3.20;;
69779;SDS011;57052;55.602;38.096;2023-06-04T00:31:06;8.35;;;3.45;;
69779;SDS011;57052;55.602;38.096;2023-06-04T00:33:32;5.95;;;2.63;;
69779;SDS011;57052;55.602;38.096;2023-06-04T00:35:57;6.07;;;3.15;;
69779;SDS011;57052;55.602;38.096;2023-06-04T00:38:23;6.50;;;2.90;;
69779;SDS011;57052;55.602;38.096;2023-06-04T00:40:49;6.15;;;2.70;;
69779;SDS011;57052;55.602;38.096;2023-06-04T00:43:14;7.50;;;3.00;;
69779;SDS011;57052;55.602;38.096;2023-06-04T00:45:40;6.90;;;3.15;;
69779;SDS011;57052;55.602;38.096;2023-06-04T00:48:07;6.60;;;2.85;;
69779;SDS011;57052;55.602;38.096;2023-06-04T00:50:33;7.00;;;3.20;;
69779;SDS011;57052;55.602;38.096;2023-06-04T00:53:01;5.00;;;3.00;;
69779;SDS011;57052;55.602;38.096;2023-06-04T00:55:27;6.85;;;3.08;;
69779;SDS011;57052;55.602;38.096;2023-06-04T00:57:53;7.70;;;3.05;;
69779;SDS011;57052;55.602;38.096;2023-06-04T01:00:19;7.00;;;3.13;;
69779;SDS011;57052;55.602;38.096;2023-06-04T01:02:45;9.15;;;3.60;;
69779;SDS011;57052;55.602;38.096;2023-06-04T01:07:46;10.70;;;3.75;;
69779;SDS011;57052;55.602;38.096;2023-06-04T01:10:14;8.02;;;3.30;;
69779;SDS011;57052;55.602;38.096;2023-06-04T01:12:41;8.98;;;3.58;;
69779;SDS011;57052;55.602;38.096;2023-06-04T01:15:08;8.77;;;3.22;;
69779;SDS011;57052;55.602;38.096;2023-06-04T01:17:42;8.18;;;2.83;;
69779;SDS011;57052;55.602;38.096;2023-06-04T01:22:45;9.13;;;3.60;;
69779;SDS011;57052;55.602;38.096;2023-06-04T01:25:31;11.48;;;3.65;;
69779;SDS011;57052;55.602;38.096;2023-06-04T01:27:59;7.97;;;3.67;;
69779;SDS011;57052;55.602;38.096;2023-06-04T01:30:30;8.63;;;3.95;;
69779;SDS011;57052;55.602;38.096;2023-06-04T01:32:58;6.93;;;3.50;;
69779;SDS011;57052;55.602;38.096;2023-06-04T01:35:25;7.22;;;3.47;;
69779;SDS011;57052;55.602;38.096;2023-06-04T01:37:52;5.82;;;3.08;;
69779;SDS011;57052;55.602;38.096;2023-06-04T01:40:19;6.72;;;3.58;;
69779;SDS011;57052;55.602;38.096;2023-06-04T01:42:46;7.70;;;3.08;;
69779;SDS011;57052;55.602;38.096;2023-06-04T01:45:11;9.90;;;3.85;;
69779;SDS011;57052;55.602;38.096;2023-06-04T01:47:37;8.65;;;3.55;;
69779;SDS011;57052;55.602;38.096;2023-06-04T01:50:04;6.07;;;3.28;;
69779;SDS011;57052;55.602;38.096;2023-06-04T01:52:38;7.00;;;3.13;;
69779;SDS011;57052;55.602;38.096;2023-06-04T01:55:06;7.32;;;3.45;;
69779;SDS011;57052;55.602;38.096;2023-06-04T01:57:33;6.10;;;3.20;;
69779;SDS011;57052;55.602;38.096;2023-06-04T02:00:01;6.50;;;3.13;;
69779;SDS011;57052;55.602;38.096;2023-06-04T02:02:31;5.80;;;2.85;;
69779;SDS011;57052;55.602;38.096;2023-06-04T02:04:57;6.40;;;3.00;;
69779;SDS011;57052;55.602;38.096;2023-06-04T02:07:22;6.75;;;3.20;;
69779;SDS011;57052;55.602;38.096;2023-06-04T02:09:48;8.70;;;3.15;;
69779;SDS011;57052;55.602;38.096;2023-06-04T02:12:14;6.07;;;3.25;;
69779;SDS011;57052;55.602;38.096;2023-06-04T02:14:41;8.80;;;2.90;;
69779;SDS011;57052;55.602;38.096;2023-06-04T02:17:08;5.95;;;3.03;;
69779;SDS011;57052;55.602;38.096;2023-06-04T02:19:42;7.57;;;2.88;;
69779;SDS011;57052;55.602;38.096;2023-06-04T02:22:18;8.45;;;3.03;;
69779;SDS011;57052;55.602;38.096;2023-06-04T02:24:44;5.28;;;3.10;;
69779;SDS011;57052;55.602;38.096;2023-06-04T02:27:10;6.28;;;2.92;;
69779;SDS011;57052;55.602;38.096;2023-06-04T02:29:40;6.30;;;2.92;;
69779;SDS011;57052;55.602;38.096;2023-06-04T02:32:07;10.77;;;3.15;;
69779;SDS011;57052;55.602;38.096;2023-06-04T02:34:33;8.45;;;3.10;;
69779;SDS011;57052;55.602;38.096;2023-06-04T02:37:00;5.05;;;2.97;;
69779;SDS011;57052;55.602;38.096;2023-06-04T02:39:26;5.68;;;2.80;;
69779;SDS011;57052;55.602;38.096;2023-06-04T02:41:52;5.20;;;2.80;;
69779;SDS011;57052;55.602;38.096;2023-06-04T02:44:17;9.60;;;3.13;;
69779;SDS011;57052;55.602;38.096;2023-06-04T02:46:43;12.75;;;3.28;;
69779;SDS011;57052;55.602;38.096;2023-06-04T02:49:10;7.75;;;3.25;;
69779;SDS011;57052;55.602;38.096;2023-06-04T02:51:40;7.00;;;3.03;;
69779;SDS011;57052;55.602;38.096;2023-06-04T02:54:06;8.68;;;3.10;;
69779;SDS011;57052;55.602;38.096;2023-06-04T02:56:32;8.15;;;2.67;;
69779;SDS011;57052;55.602;38.096;2023-06-04T02:58:58;6.43;;;2.97;;
69779;SDS011;57052;55.602;38.096;2023-06-04T03:01:25;6.90;;;2.90;;
69779;SDS011;57052;55.602;38.096;2023-06-04T03:03:51;6.03;;;2.80;;
69779;SDS011;57052;55.602;38.096;2023-06-04T03:06:18;6.93;;;3.00;;
69779;SDS011;57052;55.602;38.096;2023-06-04T03:08:48;8.93;;;3.00;;
69779;SDS011;57052;55.602;38.096;2023-06-04T03:11:20;5.07;;;2.70;;
69779;SDS011;57052;55.602;38.096;2023-06-04T03:13:46;7.55;;;2.80;;
69779;SDS011;57052;55.602;38.096;2023-06-04T03:16:13;6.97;;;2.45;;
69779;SDS011;57052;55.602;38.096;2023-06-04T03:18:42;4.43;;;2.08;;
69779;SDS011;57052;55.602;38.096;2023-06-04T03:21:08;6.03;;;2.67;;
69779;SDS011;57052;55.602;38.096;2023-06-04T03:23:36;5.95;;;2.40;;
69779;SDS011;57052;55.602;38.096;2023-06-04T03:26:02;4.30;;;2.00;;
69779;SDS011;57052;55.602;38.096;2023-06-04T03:28:29;5.82;;;2.50;;
69779;SDS011;57052;55.602;38.096;2023-06-04T03:30:55;5.05;;;2.55;;
69779;SDS011;57052;55.602;38.096;2023-06-04T03:33:20;5.45;;;2.22;;
69779;SDS011;57052;55.602;38.096;2023-06-04T03:35:46;3.45;;;1.83;;
69779;SDS011;57052;55.602;38.096;2023-06-04T03:38:13;3.58;;;2.08;;
69779;SDS011;57052;55.602;38.096;2023-06-04T03:40:40;3.92;;;1.83;;
69779;SDS011;57052;55.602;38.096;2023-06-04T03:43:06;3.80;;;1.90;;
69779;SDS011;57052;55.602;38.096;2023-06-04T03:45:32;5.07;;;1.95;;
69779;SDS011;57052;55.602;38.096;2023-06-04T03:47:58;3.47;;;1.70;;
69779;SDS011;57052;55.602;38.096;2023-06-04T03:50:23;5.85;;;2.10;;
69779;SDS011;57052;55.602;38.096;2023-06-04T03:52:50;2.92;;;1.80;;
69779;SDS011;57052;55.602;38.096;2023-06-04T03:55:15;3.30;;;1.95;;
69779;SDS011;57052;55.602;38.096;2023-06-04T03:57:41;4.45;;;1.70;;
69779;SDS011;57052;55.602;38.096;2023-06-04T04:00:08;3.88;;;1.80;;
69779;SDS011;57052;55.602;38.096;2023-06-04T04:02:41;4.93;;;1.60;;
69779;SDS011;57052;55.602;38.096;2023-06-04T04:05:07;4.70;;;1.50;;
69779;SDS011;57052;55.602;38.096;2023-06-04T04:07:34;2.75;;;1.67;;
69779;SDS011;57052;55.602;38.096;2023-06-04T04:10:00;2.95;;;1.50;;
69779;SDS011;57052;55.602;38.096;2023-06-04T04:12:29;5.05;;;1.60;;
69779;SDS011;57052;55.602;38.096;2023-06-04T04:14:54;4.10;;;1.65;;
69779;SDS011;57052;55.602;38.096;2023-06-04T04:17:20;4.05;;;1.50;;
69779;SDS011;57052;55.602;38.096;2023-06-04T04:19:46;2.25;;;1.33;;
69779;SDS011;57052;55.602;38.096;2023-06-04T04:22:12;3.42;;;1.48;;
69779;SDS011;57052;55.602;38.096;2023-06-04T04:24:42;3.40;;;1.40;;
69779;SDS011;57052;55.602;38.096;2023-06-04T04:27:09;2.15;;;1.15;;
69779;SDS011;57052;55.602;38.096;2023-06-04T04:29:36;3.75;;;1.38;;
69779;SDS011;57052;55.602;38.096;2023-06-04T04:32:02;3.25;;;1.40;;
69779;SDS011;57052;55.602;38.096;2023-06-04T04:34:36;3.20;;;1.50;;
69779;SDS011;57052;55.602;38.096;2023-06-04T04:37:16;2.67;;;1.45;;
69779;SDS011;57052;55.602;38.096;2023-06-04T04:39:42;2.63;;;1.40;;
69779;SDS011;57052;55.602;38.096;2023-06-04T04:42:07;2.47;;;1.40;;
69779;SDS011;57052;55.602;38.096;2023-06-04T04:44:33;2.42;;;1.50;;
69779;SDS011;57052;55.602;38.096;2023-06-04T04:46:59;4.00;;;1.45;;
69779;SDS011;57052;55.602;38.096;2023-06-04T04:49:24;4.22;;;1.33;;
69779;SDS011;57052;55.602;38.096;2023-06-04T04:51:50;3.88;;;1.40;;
69779;SDS011;57052;55.602;38.096;2023-06-04T04:54:16;2.88;;;1.30;;
69779;SDS011;57052;55.602;38.096;2023-06-04T04:56:42;4.72;;;1.40;;
69779;SDS011;57052;55.602;38.096;2023-06-04T04:59:07;4.53;;;1.60;;
69779;SDS011;57052;55.602;38.096;2023-06-04T05:01:33;3.08;;;1.45;;
69779;SDS011;57052;55.602;38.096;2023-06-04T05:03:59;3.10;;;1.30;;
69779;SDS011;57052;55.602;38.096;2023-06-04T05:06:24;3.55;;;1.27;;
69779;SDS011;57052;55.602;38.096;2023-06-04T05:08:50;4.57;;;1.20;;
69779;SDS011;57052;55.602;38.096;2023-06-04T05:11:16;3.78;;;1.40;;
69779;SDS011;57052;55.602;38.096;2023-06-04T05:13:41;2.22;;;1.50;;
69779;SDS011;57052;55.602;38.096;2023-06-04T05:16:07;3.90;;;1.65;;
69779;SDS011;57052;55.602;38.096;2023-06-04T05:18:33;2.20;;;1.13;;
69779;SDS011;57052;55.602;38.096;2023-06-04T05:21:00;3.75;;;1.52;;
69779;SDS011;57052;55.602;38.096;2023-06-04T05:23:28;2.70;;;1.27;;
69779;SDS011;57052;55.602;38.096;2023-06-04T05:25:58;5.50;;;1.30;;
69779;SDS011;57052;55.602;38.096;2023-06-04T05:28:24;3.55;;;1.10;;
69779;SDS011;57052;55.602;38.096;2023-06-04T05:30:51;3.92;;;1.35;;
69779;SDS011;57052;55.602;38.096;2023-06-04T05:33:17;3.70;;;1.52;;
69779;SDS011;57052;55.602;38.096;2023-06-04T05:35:52;3.65;;;1.27;;
69779;SDS011;57052;55.602;38.096;2023-06-04T05:38:19;3.95;;;1.45;;
69779;SDS011;57052;55.602;38.096;2023-06-04T05:40:45;3.55;;;1.27;;
69779;SDS011;57052;55.602;38.096;2023-06-04T05:43:12;2.65;;;1.38;;
69779;SDS011;57052;55.602;38.096;2023-06-04T05:45:38;3.08;;;1.45;;
69779;SDS011;57052;55.602;38.096;2023-06-04T05:48:04;3.88;;;1.15;;
69779;SDS011;57052;55.602;38.096;2023-06-04T05:50:31;3.38;;;1.40;;
69779;SDS011;57052;55.602;38.096;2023-06-04T05:52:57;3.53;;;1.40;;
69779;SDS011;57052;55.602;38.096;2023-06-04T05:55:22;4.95;;;1.20;;
69779;SDS011;57052;55.602;38.096;2023-06-04T05:57:49;2.42;;;1.10;;
69779;SDS011;57052;55.602;38.096;2023-06-04T06:00:17;2.95;;;1.15;;
69779;SDS011;57052;55.602;38.096;2023-06-04T06:02:43;7.20;;;1.30;;
69779;SDS011;57052;55.602;38.096;2023-06-04T06:05:10;1.98;;;1.00;;
69779;SDS011;57052;55.602;38.096;2023-06-04T06:07:36;2.03;;;1.10;;
69779;SDS011;57052;55.602;38.096;2023-06-04T06:10:02;3.60;;;1.20;;
69779;SDS011;57052;55.602;38.096;2023-06-04T06:12:29;6.60;;;1.40;;
69779;SDS011;57052;55.602;38.096;2023-06-04T06:14:55;2.90;;;1.10;;
69779;SDS011;57052;55.602;38.096;2023-06-04T06:17:21;3.13;;;1.17;;
69779;SDS011;57052;55.602;38.096;2023-06-04T06:19:48;3.65;;;1.30;;
69779;SDS011;57052;55.602;38.096;2023-06-04T06:22:13;2.50;;;1.10;;
69779;SDS011;57052;55.602;38.096;2023-06-04T06:24:39;1.55;;;0.90;;
69779;SDS011;57052;55.602;38.096;2023-06-04T06:27:08;1.80;;;1.02;;
69779;SDS011;57052;55.602;38.096;2023-06-04T06:29:34;3.38;;;1.20;;
69779;SDS011;57052;55.602;38.096;2023-06-04T06:31:59;2.58;;;1.10;;
69779;SDS011;57052;55.602;38.096;2023-06-04T06:34:25;3.40;;;1.33;;
69779;SDS011;57052;55.602;38.096;2023-06-04T06:36:51;4.28;;;1.20;;
69779;SDS011;57052;55.602;38.096;2023-06-04T06:39:17;3.83;;;1.00;;
69779;SDS011;57052;55.602;38.096;2023-06-04T06:41:43;2.72;;;1.10;;
69779;SDS011;57052;55.602;38.096;2023-06-04T06:44:08;2.15;;;0.90;;
69779;SDS011;57052;55.602;38.096;2023-06-04T06:46:34;4.20;;;1.13;;
69779;SDS011;57052;55.602;38.096;2023-06-04T06:49:00;3.00;;;1.10;;
69779;SDS011;57052;55.602;38.096;2023-06-04T06:51:26;2.75;;;1.10;;
69779;SDS011;57052;55.602;38.096;2023-06-04T06:53:51;2.53;;;1.23;;
69779;SDS011;57052;55.602;38.096;2023-06-04T06:56:17;2.92;;;1.10;;
69779;SDS011;57052;55.602;38.096;2023-06-04T06:58:43;3.83;;;1.30;;
69779;SDS011;57052;55.602;38.096;2023-06-04T07:01:09;4.50;;;1.40;;
69779;SDS011;57052;55.602;38.096;2023-06-04T07:03:35;1.92;;;1.10;;
69779;SDS011;57052;55.602;38.096;2023-06-04T07:06:01;2.15;;;1.15;;
69779;SDS011;57052;55.602;38.096;2023-06-04T07:08:27;3.38;;;1.20;;
69779;SDS011;57052;55.602;38.096;2023-06-04T07:10:53;1.63;;;1.10;;
69779;SDS011;57052;55.602;38.096;2023-06-04T07:13:19;1.85;;;1.00;;
69779;SDS011;57052;55.602;38.096;2023-06-04T07:15:45;2.17;;;1.30;;
69779;SDS011;57052;55.602;38.096;2023-06-04T07:18:11;2.20;;;1.00;;
69779;SDS011;57052;55.602;38.096;2023-06-04T07:20:37;1.73;;;0.90;;
69779;SDS011;57052;55.602;38.096;2023-06-04T07:23:02;3.15;;;1.27;;
69779;SDS011;57052;55.602;38.096;2023-06-04T07:25:28;1.95;;;0.93;;
69779;SDS011;57052;55.602;38.096;2023-06-04T07:27:54;1.95;;;1.35;;
69779;SDS011;57052;55.602;38.096;2023-06-04T07:30:26;1.55;;;1.00;;
69779;SDS011;57052;55.602;38.096;2023-06-04T07:32:52;1.95;;;1.08;;
69779;SDS011;57052;55.602;38.096;2023-06-04T07:35:18;1.63;;;1.00;;
69779;SDS011;57052;55.602;38.096;2023-06-04T07:37:43;1.02;;;0.80;;
69779;SDS011;57052;55.602;38.096;2023-06-04T07:40:10;1.55;;;0.82;;
69779;SDS011;57052;55.602;38.096;2023-06-04T07:42:37;1.80;;;1.05;;
69779;SDS011;57052;55.602;38.096;2023-06-04T07:45:03;1.52;;;1.10;;
69779;SDS011;57052;55.602;38.096;2023-06-04T07:47:31;2.33;;;0.95;;
69779;SDS011;57052;55.602;38.096;2023-06-04T07:49:57;2.00;;;1.10;;
69779;SDS011;57052;55.602;38.096;2023-06-04T07:52:22;2.72;;;1.10;;
69779;SDS011;57052;55.602;38.096;2023-06-04T07:54:48;3.28;;;0.90;;
69779;SDS011;57052;55.602;38.096;2023-06-04T07:57:14;1.85;;;1.13;;
69779;SDS011;57052;55.602;38.096;2023-06-04T07:59:40;1.30;;;0.95;;
69779;SDS011;57052;55.602;38.096;2023-06-04T08:02:05;1.30;;;1.00;;
69779;SDS011;57052;55.602;38.096;2023-06-04T08:04:31;2.17;;;0.95;;
69779;SDS011;57052;55.602;38.096;2023-06-04T08:06:57;2.10;;;1.20;;
69779;SDS011;57052;55.602;38.096;2023-06-04T08:09:23;1.48;;;0.88;;
69779;SDS011;57052;55.602;38.096;2023-06-04T08:11:48;2.30;;;1.10;;
69779;SDS011;57052;55.602;38.096;2023-06-04T08:14:14;1.65;;;0.90;;
69779;SDS011;57052;55.602;38.096;2023-06-04T08:16:40;2.15;;;1.10;;
69779;SDS011;57052;55.602;38.096;2023-06-04T08:19:17;1.85;;;1.00;;
69779;SDS011;57052;55.602;38.096;2023-06-04T08:21:42;2.88;;;1.00;;
69779;SDS011;57052;55.602;38.096;2023-06-04T08:24:29;1.50;;;0.93;;
69779;SDS011;57052;55.602;38.096;2023-06-04T08:27:11;2.00;;;0.93;;
69779;SDS011;57052;55.602;38.096;2023-06-04T08:29:42;1.83;;;1.20;;
69779;SDS011;57052;55.602;38.096;2023-06-04T08:35:11;1.48;;;0.93;;
69779;SDS011;57052;55.602;38.096;2023-06-04T08:37:36;1.55;;;0.95;;
69779;SDS011;57052;55.602;38.096;2023-06-04T08:40:02;1.80;;;1.00;;
69779;SDS011;57052;55.602;38.096;2023-06-04T08:42:31;1.90;;;1.13;;
69779;SDS011;57052;55.602;38.096;2023-06-04T08:45:01;5.55;;;1.15;;
69779;SDS011;57052;55.602;38.096;2023-06-04T08:47:32;4.63;;;1.00;;
69779;SDS011;57052;55.602;38.096;2023-06-04T08:50:00;1.90;;;1.23;;
69779;SDS011;57052;55.602;38.096;2023-06-04T08:52:30;2.30;;;1.05;;
69779;SDS011;57052;55.602;38.096;2023-06-04T08:54:56;2.60;;;1.08;;
69779;SDS011;57052;55.602;38.096;2023-06-04T08:57:23;1.90;;;0.88;;
69779;SDS011;57052;55.602;38.096;2023-06-04T08:59:48;2.97;;;0.90;;
69779;SDS011;57052;55.602;38.096;2023-06-04T09:02:15;2.65;;;1.05;;
69779;SDS011;57052;55.602;38.096;2023-06-04T09:04:41;4.65;;;1.08;;
69779;SDS011;57052;55.602;38.096;2023-06-04T09:07:08;3.08;;;1.30;;
69779;SDS011;57052;55.602;38.096;2023-06-04T09:09:38;2.85;;;1.40;;
69779;SDS011;57052;55.602;38.096;2023-06-04T09:12:05;4.30;;;1.23;;
69779;SDS011;57052;55.602;38.096;2023-06-04T09:14:35;2.47;;;1.10;;
69779;SDS011;57052;55.602;38.096;2023-06-04T09:17:01;1.90;;;1.23;;
69779;SDS011;57052;55.602;38.096;2023-06-04T09:19:27;1.65;;;1.10;;
69779;SDS011;57052;55.602;38.096;2023-06-04T09:24:23;1.90;;;1.20;;
69779;SDS011;57052;55.602;38.096;2023-06-04T09:26:50;3.50;;;1.05;;
69779;SDS011;57052;55.602;38.096;2023-06-04T09:29:16;2.40;;;1.58;;
69779;SDS011;57052;55.602;38.096;2023-06-04T09:31:46;2.35;;;1.20;;
69779;SDS011;57052;55.602;38.096;2023-06-04T09:34:13;3.70;;;1.42;;
69779;SDS011;57052;55.602;38.096;2023-06-04T09:36:40;3.28;;;1.20;;
69779;SDS011;57052;55.602;38.096;2023-06-04T09:39:15;2.40;;;1.20;;
69779;SDS011;57052;55.602;38.096;2023-06-04T09:41:42;1.95;;;0.90;;
69779;SDS011;57052;55.602;38.096;2023-06-04T09:44:07;3.28;;;1.00;;
69779;SDS011;57052;55.602;38.096;2023-06-04T09:46:36;1.77;;;1.30;;
69779;SDS011;57052;55.602;38.096;2023-06-04T09:49:03;2.67;;;1.02;;
69779;SDS011;57052;55.602;38.096;2023-06-04T09:51:30;2.28;;;1.02;;
69779;SDS011;57052;55.602;38.096;2023-06-04T09:53:57;1.60;;;1.13;;
69779;SDS011;57052;55.602;38.096;2023-06-04T09:56:24;3.80;;;1.35;;
69779;SDS011;57052;55.602;38.096;2023-06-04T09:58:57;2.45;;;1.63;;
69779;SDS011;57052;55.602;38.096;2023-06-04T10:01:28;3.47;;;1.30;;
69779;SDS011;57052;55.602;38.096;2023-06-04T10:03:56;3.08;;;1.30;;
69779;SDS011;57052;55.602;38.096;2023-06-04T10:06:27;2.28;;;1.17;;
69779;SDS011;57052;55.602;38.096;2023-06-04T10:08:58;3.38;;;1.60;;
69779;SDS011;57052;55.602;38.096;2023-06-04T10:11:30;1.92;;;1.25;;
69779;SDS011;57052;55.602;38.096;2023-06-04T10:14:03;2.00;;;1.20;;
69779;SDS011;57052;55.602;38.096;2023-06-04T10:16:37;1.45;;;1.10;;
69779;SDS011;57052;55.602;38.096;2023-06-04T10:19:04;2.65;;;1.10;;
69779;SDS011;57052;55.602;38.096;2023-06-04T10:21:32;2.17;;;1.15;;
69779;SDS011;57052;55.602;38.096;2023-06-04T10:24:00;3.22;;;1.15;;
69779;SDS011;57052;55.602;38.096;2023-06-04T10:26:26;3.13;;;1.13;;
69779;SDS011;57052;55.602;38.096;2023-06-04T10:28:52;1.98;;;1.10;;
69779;SDS011;57052;55.602;38.096;2023-06-04T10:31:18;2.25;;;1.27;;
69779;SDS011;57052;55.602;38.096;2023-06-04T10:33:44;4.57;;;1.23;;
69779;SDS011;57052;55.602;38.096;2023-06-04T10:36:16;2.17;;;1.20;;
69779;SDS011;57052;55.602;38.096;2023-06-04T10:38:47;3.13;;;1.33;;
69779;SDS011;57052;55.602;38.096;2023-06-04T10:41:21;3.85;;;1.48;;
69779;SDS011;57052;55.602;38.096;2023-06-04T10:43:51;2.53;;;1.00;;
69779;SDS011;57052;55.602;38.096;2023-06-04T10:46:25;3.25;;;1.40;;
69779;SDS011;57052;55.602;38.096;2023-06-04T10:48:52;2.28;;;1.00;;
69779;SDS011;57052;55.602;38.096;2023-06-04T10:51:31;1.73;;;1.20;;
69779;SDS011;57052;55.602;38.096;2023-06-04T10:53:59;3.97;;;1.10;;
69779;SDS011;57052;55.602;38.096;2023-06-04T10:56:33;1.40;;;1.02;;
69779;SDS011;57052;55.602;38.096;2023-06-04T10:59:13;1.42;;;1.00;;
69779;SDS011;57052;55.602;38.096;2023-06-04T11:01:39;3.08;;;1.42;;
69779;SDS011;57052;55.602;38.096;2023-06-04T11:04:05;2.30;;;1.30;;
69779;SDS011;57052;55.602;38.096;2023-06-04T11:06:31;3.08;;;1.35;;
69779;SDS011;57052;55.602;38.096;2023-06-04T11:09:02;2.38;;;1.20;;
69779;SDS011;57052;55.602;38.096;2023-06-04T11:11:29;2.95;;;1.20;;
69779;SDS011;57052;55.602;38.096;2023-06-04T11:13:55;2.25;;;1.30;;
69779;SDS011;57052;55.602;38.096;2023-06-04T11:16:20;3.10;;;1.10;;
69779;SDS011;57052;55.602;38.096;2023-06-04T11:18:56;3.97;;;1.58;;
69779;SDS011;57052;55.602;38.096;2023-06-04T11:21:24;3.38;;;1.40;;
69779;SDS011;57052;55.602;38.096;2023-06-04T11:24:00;5.10;;;1.73;;
69779;SDS011;57052;55.602;38.096;2023-06-04T11:26:30;3.22;;;1.20;;
69779;SDS011;57052;55.602;38.096;2023-06-04T11:29:00;3.50;;;2.30;;
69779;SDS011;57052;55.602;38.096;2023-06-04T11:31:27;3.50;;;1.67;;
69779;SDS011;57052;55.602;38.096;2023-06-04T11:33:53;2.30;;;1.40;;
69779;SDS011;57052;55.602;38.096;2023-06-04T11:36:29;5.28;;;1.70;;
69779;SDS011;57052;55.602;38.096;2023-06-04T11:41:26;3.17;;;1.30;;
69779;SDS011;57052;55.602;38.096;2023-06-04T11:43:52;2.33;;;1.30;;
69779;SDS011;57052;55.602;38.096;2023-06-04T11:46:18;1.60;;;1.10;;
69779;SDS011;57052;55.602;38.096;2023-06-04T11:48:45;2.05;;;1.20;;
69779;SDS011;57052;55.602;38.096;2023-06-04T11:51:11;2.40;;;1.20;;
69779;SDS011;57052;55.602;38.096;2023-06-04T11:53:37;1.95;;;1.20;;
69779;SDS011;57052;55.602;38.096;2023-06-04T11:56:04;2.38;;;1.40;;
69779;SDS011;57052;55.602;38.096;2023-06-04T11:58:30;4.40;;;2.17;;
69779;SDS011;57052;55.602;38.096;2023-06-04T12:00:57;3.33;;;1.60;;
69779;SDS011;57052;55.602;38.096;2023-06-04T12:03:34;1.92;;;1.20;;
69779;SDS011;57052;55.602;38.096;2023-06-04T12:08:45;4.82;;;1.50;;
69779;SDS011;57052;55.602;38.096;2023-06-04T12:11:29;2.78;;;1.40;;
69779;SDS011;57052;55.602;38.096;2023-06-04T12:14:03;2.05;;;1.40;;
69779;SDS011;57052;55.602;38.096;2023-06-04T12:16:30;1.55;;;1.20;;
69779;SDS011;57052;55.602;38.096;2023-06-04T12:19:06;4.25;;;1.33;;
69779;SDS011;57052;55.602;38.096;2023-06-04T12:21:35;3.78;;;1.50;;
69779;SDS011;57052;55.602;38.096;2023-06-04T12:24:13;3.40;;;1.50;;
69779;SDS011;57052;55.602;38.096;2023-06-04T12:26:40;2.38;;;1.10;;
69779;SDS011;57052;55.602;38.096;2023-06-04T12:29:09;2.47;;;1.30;;
69779;SDS011;57052;55.602;38.096;2023-06-04T12:31:38;3.13;;;1.10;;
69779;SDS011;57052;55.602;38.096;2023-06-04T12:34:04;3.20;;;1.25;;
69779;SDS011;57052;55.602;38.096;2023-06-04T12:36:30;3.03;;;1.20;;
69779;SDS011;57052;55.602;38.096;2023-06-04T12:38:59;2.13;;;1.10;;
69779;SDS011;57052;55.602;38.096;2023-06-04T12:41:29;1.73;;;1.10;;
69779;SDS011;57052;55.602;38.096;2023-06-04T12:43:55;3.65;;;1.33;;
69779;SDS011;57052;55.602;38.096;2023-06-04T12:46:22;3.25;;;1.73;;
69779;SDS011;57052;55.602;38.096;2023-06-04T12:48:52;2.75;;;1.42;;
69779;SDS011;57052;55.602;38.096;2023-06-04T12:51:19;3.53;;;1.60;;
69779;SDS011;57052;55.602;38.096;2023-06-04T12:53:46;3.28;;;1.73;;
69779;SDS011;57052;55.602;38.096;2023-06-04T12:56:12;3.00;;;1.30;;
69779;SDS011;57052;55.602;38.096;2023-06-04T12:58:39;3.40;;;1.40;;
69779;SDS011;57052;55.602;38.096;2023-06-04T13:01:05;2.60;;;1.38;;
69779;SDS011;57052;55.602;38.096;2023-06-04T13:03:31;2.10;;;1.30;;
69779;SDS011;57052;55.602;38.096;2023-06-04T13:05:57;3.63;;;1.50;;
69779;SDS011;57052;55.602;38.096;2023-06-04T13:08:23;3.22;;;1.50;;
69779;SDS011;57052;55.602;38.096;2023-06-04T13:10:49;3.38;;;1.40;;
69779;SDS011;57052;55.602;38.096;2023-06-04T13:13:16;4.45;;;1.60;;
69779;SDS011;57052;55.602;38.096;2023-06-04T13:15:43;2.97;;;1.27;;
69779;SDS011;57052;55.602;38.096;2023-06-04T13:18:10;2.75;;;1.38;;
69779;SDS011;57052;55.602;38.096;2023-06-04T13:20:36;2.22;;;1.20;;
69779;SDS011;57052;55.602;38.096;2023-06-04T13:23:03;8.15;;;1.67;;
69779;SDS011;57052;55.602;38.096;2023-06-04T13:25:28;5.70;;;1.92;;
69779;SDS011;57052;55.602;38.096;2023-06-04T13:27:58;3.72;;;1.83;;
69779;SDS011;57052;55.602;38.096;2023-06-04T13:30:24;3.13;;;1.70;;
69779;SDS011;57052;55.602;38.096;2023-06-04T13:32:50;3.40;;;1.80;;
69779;SDS011;57052;55.602;38.096;2023-06-04T13:35:15;5.40;;;1.80;;
69779;SDS011;57052;55.602;38.096;2023-06-04T13:37:41;5.47;;;1.73;;
69779;SDS011;57052;55.602;38.096;2023-06-04T13:40:07;4.28;;;1.60;;
69779;SDS011;57052;55.602;38.096;2023-06-04T13:42:33;4.90;;;1.50;;
69779;SDS011;57052;55.602;38.096;2023-06-04T13:44:59;3.05;;;1.60;;
69779;SDS011;57052;55.602;38.096;2023-06-04T13:47:24;3.47;;;1.55;;
69779;SDS011;57052;55.602;38.096;2023-06-04T13:49:50;2.67;;;1.50;;
69779;SDS011;57052;55.602;38.096;2023-06-04T13:52:16;3.05;;;1.50;;
69779;SDS011;57052;55.602;38.096;2023-06-04T13:54:43;3.13;;;1.55;;
69779;SDS011;57052;55.602;38.096;2023-06-04T13:57:08;2.30;;;1.35;;
69779;SDS011;57052;55.602;38.096;2023-06-04T13:59:38;2.45;;;1.20;;
69779;SDS011;57052;55.602;38.096;2023-06-04T14:02:04;4.10;;;2.08;;
69779;SDS011;57052;55.602;38.096;2023-06-04T14:04:30;2.33;;;1.30;;
69779;SDS011;57052;55.602;38.096;2023-06-04T14:06:55;4.43;;;1.67;;
69779;SDS011;57052;55.602;38.096;2023-06-04T14:09:21;3.13;;;1.30;;
69779;SDS011;57052;55.602;38.096;2023-06-04T14:11:47;3.60;;;1.30;;
69779;SDS011;57052;55.602;38.096;2023-06-04T14:14:19;5.03;;;2.30;;
69779;SDS011;57052;55.602;38.096;2023-06-04T14:16:46;2.50;;;1.30;;
69779;SDS011;57052;55.602;38.096;2023-06-04T14:19:12;3.50;;;1.45;;
69779;SDS011;57052;55.602;38.096;2023-06-04T14:21:40;4.85;;;1.60;;
69779;SDS011;57052;55.602;38.096;2023-06-04T14:24:07;2.67;;;1.40;;
69779;SDS011;57052;55.602;38.096;2023-06-04T14:26:32;3.10;;;1.30;;
69779;SDS011;57052;55.602;38.096;2023-06-04T14:28:59;2.92;;;1.40;;
69779;SDS011;57052;55.602;38.096;2023-06-04T14:31:24;3.30;;;1.40;;
69779;SDS011;57052;55.602;38.096;2023-06-04T14:33:50;3.95;;;1.40;;
69779;SDS011;57052;55.602;38.096;2023-06-04T14:36:16;3.15;;;1.27;;
69779;SDS011;57052;55.602;38.096;2023-06-04T14:38:41;2.60;;;1.50;;
69779;SDS011;57052;55.602;38.096;2023-06-04T14:41:08;4.18;;;1.40;;
69779;SDS011;57052;55.602;38.096;2023-06-04T14:43:34;2.58;;;1.40;;
69779;SDS011;57052;55.602;38.096;2023-06-04T14:46:00;1.80;;;1.25;;
69779;SDS011;57052;55.602;38.096;2023-06-04T14:48:25;3.13;;;1.60;;
69779;SDS011;57052;55.602;38.096;2023-06-04T14:50:51;1.67;;;1.20;;